createdAt,value
2018-10-09T00:00:21.235Z,7.53
2018-10-09T00:05:24.435Z,9.03
2018-10-09T00:10:27.706Z,8.13
2018-10-09T00:15:30.945Z,7.87
2018-10-09T00:20:34.163Z,8.53
2018-10-09T00:25:37.353Z,7.13
2018-10-09T00:30:40.583Z,8.10
2018-10-09T00:35:43.816Z,9.60
2018-10-09T00:40:47.012Z,6.60
2018-10-09T00:45:50.107Z,8.47
2018-10-09T00:50:53.210Z,8.23
2018-10-09T00:55:56.316Z,7.17
2018-10-09T01:00:59.428Z,8.07
2018-10-09T01:06:02.527Z,7.60
2018-10-09T01:11:05.747Z,8.03
2018-10-09T01:16:09.229Z,7.30
2018-10-09T01:21:12.327Z,9.00
2018-10-09T01:26:15.436Z,8.37
2018-10-09T01:31:18.535Z,8.27
2018-10-09T01:36:21.799Z,7.90
2018-10-09T01:41:24.909Z,8.10
2018-10-09T01:46:28.020Z,8.40
2018-10-09T01:51:31.125Z,7.40
2018-10-09T01:56:34.346Z,7.87
2018-10-09T02:01:37.448Z,7.50
2018-10-09T02:06:40.552Z,8.53
2018-10-09T02:11:43.664Z,7.33
2018-10-09T02:16:46.787Z,6.97
2018-10-09T02:21:49.887Z,8.57
2018-10-09T02:26:52.992Z,8.40
2018-10-09T02:31:56.093Z,8.07
2018-10-09T02:36:59.204Z,7.70
2018-10-09T02:42:02.315Z,9.00
2018-10-09T02:47:05.648Z,7.23
2018-10-09T02:52:08.756Z,7.80
2018-10-09T02:57:11.864Z,9.13
2018-10-09T03:02:14.979Z,8.90
2018-10-09T03:07:18.087Z,9.03
2018-10-09T03:12:21.181Z,9.53
2018-10-09T03:17:24.295Z,7.00
2018-10-09T03:22:27.399Z,8.00
2018-10-09T03:27:30.504Z,6.80
2018-10-09T03:32:33.840Z,8.17
2018-10-09T03:37:37.111Z,7.77
2018-10-09T03:42:40.219Z,7.43
2018-10-09T03:47:43.339Z,6.53
2018-10-09T03:52:46.443Z,8.40
2018-10-09T03:57:49.579Z,7.40
2018-10-09T04:02:52.663Z,7.47
2018-10-09T04:07:55.778Z,7.20
2018-10-09T04:12:58.887Z,7.23
2018-10-09T04:18:01.995Z,8.10
2018-10-09T04:23:06.029Z,7.47
2018-10-09T04:28:09.135Z,7.13
2018-10-09T04:33:12.235Z,6.47
2018-10-09T04:38:15.339Z,6.50
2018-10-09T04:43:18.452Z,7.43
2018-10-09T04:48:21.560Z,7.62
2018-10-09T04:53:24.696Z,6.67
2018-10-09T04:58:27.887Z,6.57
2018-10-09T05:03:30.992Z,7.50
2018-10-09T05:08:34.107Z,7.27
2018-10-09T05:13:37.449Z,6.07
2018-10-09T05:18:40.571Z,6.77
2018-10-09T05:23:43.684Z,6.17
2018-10-09T05:28:46.917Z,7.53
2018-10-09T05:33:50.009Z,6.53
2018-10-09T05:38:53.115Z,7.30
2018-10-09T05:43:56.228Z,6.07
2018-10-09T05:48:59.345Z,6.17
2018-10-09T05:54:02.448Z,7.33
2018-10-09T05:59:05.560Z,6.30
2018-10-09T06:04:09.715Z,5.90
2018-10-09T06:09:12.854Z,5.92
2018-10-09T06:14:15.969Z,6.12
2018-10-09T06:19:19.080Z,6.30
2018-10-09T06:24:22.191Z,7.40
2018-10-09T06:29:25.312Z,6.00
2018-10-09T06:34:28.419Z,6.60
2018-10-09T06:39:31.523Z,6.00
2018-10-09T06:44:34.640Z,6.37
2018-10-09T06:49:37.747Z,5.67
2018-10-09T06:54:40.952Z,6.20
2018-10-09T06:59:43.972Z,7.73
2018-10-09T07:04:47.112Z,7.30
2018-10-09T07:09:50.228Z,7.60
2018-10-09T07:14:53.373Z,6.70
2018-10-09T07:19:56.485Z,5.93
2018-10-09T07:24:59.592Z,9.37
2018-10-09T07:30:02.716Z,8.20
2018-10-09T07:35:06.644Z,9.27
2018-10-09T07:40:09.757Z,7.50
2018-10-09T07:45:12.866Z,8.40
2018-10-09T07:50:15.975Z,7.70
2018-10-09T07:55:19.178Z,7.07
2018-10-09T08:00:22.429Z,8.73
2018-10-09T08:05:25.532Z,8.13
2018-10-09T08:10:28.653Z,8.90
2018-10-09T08:15:31.753Z,7.70
2018-10-09T08:20:34.874Z,7.55
2018-10-09T08:25:38.188Z,8.87
2018-10-09T08:30:41.297Z,8.30
2018-10-09T08:35:44.441Z,8.77
2018-10-09T08:40:47.655Z,6.75
2018-10-09T08:45:50.779Z,8.60
2018-10-09T08:50:53.879Z,8.70
2018-10-09T08:55:56.996Z,7.73
2018-10-09T09:01:00.102Z,9.20
2018-10-09T09:06:03.213Z,7.63
2018-10-09T09:11:06.339Z,9.93
2018-10-09T09:16:09.454Z,10.20
2018-10-09T09:21:12.672Z,9.95
2018-10-09T09:26:15.749Z,9.33
2018-10-09T09:31:18.868Z,7.47
2018-10-09T09:36:21.977Z,8.57
2018-10-09T09:41:25.089Z,10.10
2018-10-09T09:46:28.248Z,10.40
2018-10-09T09:51:31.361Z,11.47
2018-10-09T09:56:34.471Z,11.77
2018-10-09T10:01:41.232Z,10.57
2018-10-09T10:06:44.392Z,10.70
2018-10-09T10:11:47.457Z,9.93
2018-10-09T10:16:50.589Z,11.00
2018-10-09T10:21:53.692Z,10.90
2018-10-09T10:26:56.840Z,9.80
2018-10-09T10:31:59.953Z,11.20
2018-10-09T10:37:03.061Z,12.63
2018-10-09T10:42:06.275Z,11.47
2018-10-09T10:47:09.389Z,10.27
2018-10-09T10:52:12.500Z,11.63
2018-10-09T10:57:15.608Z,9.70
2018-10-09T11:02:18.717Z,10.55
2018-10-09T11:07:21.829Z,11.20
2018-10-09T11:12:24.942Z,11.97
2018-10-09T11:17:28.069Z,12.43
2018-10-09T11:22:31.180Z,11.83
2018-10-09T11:27:34.293Z,13.30
2018-10-09T11:32:37.551Z,13.13
2018-10-09T11:37:40.572Z,15.40
2018-10-09T11:42:43.712Z,13.50
2018-10-09T11:47:46.784Z,14.40
2018-10-09T11:52:49.892Z,12.17
2018-10-09T11:57:53.088Z,10.93
2018-10-09T12:02:56.247Z,12.80
2018-10-09T12:07:59.388Z,11.43
2018-10-09T12:13:02.772Z,11.60
2018-10-09T12:18:05.888Z,11.20
2018-10-09T12:23:09.061Z,11.20
2018-10-09T12:28:12.177Z,14.63
2018-10-09T12:33:15.312Z,11.57
2018-10-09T12:38:18.459Z,13.03
2018-10-09T12:43:21.548Z,12.33
2018-10-09T12:48:24.664Z,11.53
2018-10-09T12:53:27.776Z,12.57
2018-10-09T12:58:30.916Z,11.77
2018-10-09T13:03:34.004Z,10.50
2018-10-09T13:08:37.115Z,10.67
2018-10-09T13:13:40.225Z,10.47
2018-10-09T13:18:43.344Z,10.30
2018-10-09T13:23:46.465Z,9.37
2018-10-09T13:28:49.585Z,10.23
2018-10-09T13:33:52.698Z,8.00
2018-10-09T13:38:55.800Z,9.90
2018-10-09T13:43:58.937Z,9.80
2018-10-09T13:49:02.049Z,9.47
2018-10-09T13:54:05.548Z,9.77
2018-10-09T13:59:08.729Z,8.47
2018-10-09T14:04:11.840Z,8.60
2018-10-09T14:09:14.960Z,9.18
2018-10-09T14:14:18.088Z,8.33
2018-10-09T14:19:21.223Z,9.00
2018-10-09T14:24:24.341Z,7.90
2018-10-09T14:29:27.444Z,7.17
2018-10-09T14:34:30.616Z,8.47
2018-10-09T14:39:33.724Z,7.50
2018-10-09T14:44:36.848Z,8.20
2018-10-09T14:49:39.951Z,7.40
2018-10-09T14:54:43.065Z,7.47
2018-10-09T14:59:46.188Z,7.23
2018-10-09T15:04:49.304Z,7.87
2018-10-09T15:09:52.413Z,7.47
2018-10-09T15:14:55.527Z,6.50
2018-10-09T15:19:58.636Z,7.63
2018-10-09T15:25:01.751Z,5.90
2018-10-09T15:30:05.799Z,6.93
2018-10-09T15:35:09.153Z,7.70
2018-10-09T15:40:12.232Z,6.60
2018-10-09T15:45:15.490Z,6.75
2018-10-09T15:50:18.733Z,6.57
2018-10-09T15:55:22.298Z,6.77
2018-10-09T16:00:25.564Z,7.00
2018-10-09T16:05:28.733Z,7.10
2018-10-09T16:10:31.992Z,6.50
2018-10-09T16:15:35.109Z,6.80
2018-10-09T16:20:38.278Z,7.10
2018-10-09T16:25:41.365Z,4.93
2018-10-09T16:30:44.493Z,6.10
2018-10-09T16:35:47.627Z,7.00
2018-10-09T16:40:50.735Z,6.87
2018-10-09T16:45:53.849Z,7.00
2018-10-09T16:50:56.961Z,5.23
2018-10-09T16:56:00.249Z,5.13
2018-10-09T17:01:03.360Z,6.80
2018-10-09T17:06:06.542Z,6.70
2018-10-09T17:11:09.687Z,5.67
2018-10-09T17:16:12.942Z,6.50
2018-10-09T17:21:16.057Z,6.47
2018-10-09T17:26:19.273Z,6.80
2018-10-09T17:31:22.372Z,6.10
2018-10-09T17:36:25.472Z,6.30
2018-10-09T17:41:28.585Z,5.63
2018-10-09T17:46:31.863Z,7.33
2018-10-09T17:51:34.816Z,6.17
2018-10-09T17:56:37.955Z,6.47
2018-10-09T18:01:41.066Z,6.77
2018-10-09T18:06:44.176Z,5.40
2018-10-09T18:11:47.361Z,5.73
2018-10-09T18:16:50.489Z,5.90
2018-10-09T18:21:53.593Z,6.03
2018-10-09T18:26:56.713Z,5.30
2018-10-09T18:31:59.824Z,6.87
2018-10-09T18:37:02.958Z,6.73
2018-10-09T18:42:06.622Z,7.23
2018-10-09T18:47:15.101Z,7.73
2018-10-09T18:52:18.231Z,6.92
2018-10-09T18:57:21.340Z,7.80
2018-10-09T19:02:24.485Z,5.87
2018-10-09T19:07:28.155Z,6.80
2018-10-09T19:12:31.352Z,5.53
2018-10-09T19:17:34.468Z,6.60
2018-10-09T19:22:37.619Z,5.47
2018-10-09T19:27:40.733Z,6.12
2018-10-09T19:32:43.996Z,6.60
2018-10-09T19:37:46.964Z,6.07
2018-10-09T19:42:50.071Z,6.40
2018-10-09T19:47:53.200Z,6.07
2018-10-09T19:52:56.316Z,6.37
2018-10-09T19:57:59.424Z,5.97
2018-10-09T20:03:02.661Z,7.17
2018-10-09T20:08:06.546Z,5.55
2018-10-09T20:13:09.905Z,7.30
2018-10-09T20:18:13.012Z,6.40
2018-10-09T20:23:16.476Z,5.90
2018-10-09T20:28:19.685Z,6.12
2018-10-09T20:33:22.853Z,6.03
2018-10-09T20:38:26.014Z,5.67
2018-10-09T20:43:29.257Z,6.23
2018-10-09T20:48:32.376Z,5.53
2018-10-09T20:53:35.489Z,7.07
2018-10-09T20:58:38.884Z,6.43
2018-10-09T21:03:41.984Z,6.83
2018-10-09T21:08:45.098Z,5.37
2018-10-09T21:13:48.205Z,6.43
2018-10-09T21:18:51.317Z,7.07
2018-10-09T21:23:54.425Z,7.53
2018-10-09T21:28:57.538Z,6.93
2018-10-09T21:34:00.649Z,6.83
2018-10-09T21:39:05.014Z,6.43
2018-10-09T21:44:08.133Z,6.87
2018-10-09T21:49:11.244Z,5.87
2018-10-09T21:54:14.360Z,7.37
2018-10-09T21:59:17.500Z,6.90
2018-10-09T22:04:20.623Z,6.45
2018-10-09T22:09:23.720Z,5.87
2018-10-09T22:14:26.828Z,5.97
2018-10-09T22:19:29.944Z,6.67
2018-10-09T22:24:33.128Z,7.20
2018-10-09T22:29:36.145Z,6.47
2018-10-09T22:34:39.562Z,6.13
2018-10-09T22:39:42.734Z,6.37
2018-10-09T22:44:45.854Z,7.23
2018-10-09T22:49:48.958Z,5.87
2018-10-09T22:54:52.080Z,7.23
2018-10-09T22:59:55.204Z,7.80
2018-10-09T23:04:58.326Z,7.47
2018-10-09T23:10:01.487Z,8.30
2018-10-09T23:15:05.884Z,7.30
2018-10-09T23:20:09.269Z,7.63
2018-10-09T23:25:12.672Z,7.92
2018-10-09T23:30:15.797Z,7.03
2018-10-09T23:35:18.912Z,7.33
2018-10-09T23:40:22.027Z,8.10
2018-10-09T23:45:25.145Z,6.97
2018-10-09T23:50:28.354Z,7.30
2018-10-09T23:55:31.479Z,7.07
